createdAt,value
2022-10-12T00:00:01.413Z,100.00
2022-10-12T00:02:28.661Z,100.00
2022-10-12T00:04:55.856Z,100.00
2022-10-12T00:07:23.202Z,100.00
2022-10-12T00:09:50.626Z,100.00
2022-10-12T00:12:17.909Z,100.00
2022-10-12T00:14:45.344Z,100.00
2022-10-12T00:17:12.677Z,100.00
2022-10-12T00:19:40.539Z,100.00
2022-10-12T00:22:07.857Z,100.00
2022-10-12T00:24:37.465Z,100.00
2022-10-12T00:27:07.755Z,100.00
2022-10-12T00:29:35.087Z,100.00
2022-10-12T00:32:02.328Z,100.00
2022-10-12T00:34:29.547Z,100.00
2022-10-12T00:36:57.123Z,100.00
2022-10-12T00:39:24.324Z,100.00
2022-10-12T00:41:51.523Z,100.00
2022-10-12T00:44:41.439Z,100.00
2022-10-12T00:47:37.504Z,100.00
2022-10-12T00:50:04.811Z,100.00
2022-10-12T00:53:06.775Z,100.00
2022-10-12T00:55:39.865Z,100.00
2022-10-12T00:58:08.941Z,100.00
2022-10-12T01:00:37.908Z,100.00
2022-10-12T01:03:08.340Z,100.00
2022-10-12T01:05:37.055Z,100.00
2022-10-12T01:08:04.300Z,100.00
2022-10-12T01:10:31.545Z,100.00
2022-10-12T01:12:59.824Z,100.00
2022-10-12T01:15:37.128Z,100.00
2022-10-12T01:18:24.222Z,100.00
2022-10-12T01:21:19.568Z,100.00
2022-10-12T01:24:13.241Z,100.00
2022-10-12T01:27:15.583Z,100.00
2022-10-12T01:30:14.950Z,100.00
2022-10-12T01:33:06.101Z,100.00
2022-10-12T01:36:05.627Z,100.00
2022-10-12T01:38:57.849Z,100.00
2022-10-12T01:41:42.408Z,100.00
2022-10-12T01:44:09.571Z,100.00
2022-10-12T01:46:41.577Z,100.00
2022-10-12T01:49:09.843Z,100.00
2022-10-12T01:51:56.757Z,100.00
2022-10-12T01:54:48.706Z,100.00
2022-10-12T01:58:01.994Z,100.00
2022-10-12T02:00:34.301Z,100.00
2022-10-12T02:03:14.289Z,100.00
2022-10-12T02:06:08.307Z,100.00
2022-10-12T02:08:48.568Z,100.00
2022-10-12T02:11:22.943Z,100.00
2022-10-12T02:14:06.684Z,100.00
2022-10-12T02:16:43.834Z,100.00
2022-10-12T02:19:16.354Z,100.00
2022-10-12T02:21:47.409Z,100.00
2022-10-12T02:24:17.612Z,100.00
2022-10-12T02:26:48.710Z,100.00
2022-10-12T02:29:23.364Z,100.00
2022-10-12T02:32:02.636Z,100.00
2022-10-12T02:34:51.189Z,100.00
2022-10-12T02:37:45.004Z,100.00
2022-10-12T02:40:43.860Z,100.00
2022-10-12T02:43:29.645Z,100.00
2022-10-12T02:45:59.229Z,100.00
2022-10-12T02:48:28.676Z,100.00
2022-10-12T02:50:58.539Z,100.00
2022-10-12T02:53:27.954Z,100.00
2022-10-12T02:56:05.754Z,100.00
2022-10-12T02:58:33.127Z,100.00
2022-10-12T03:01:00.391Z,100.00
2022-10-12T03:03:29.715Z,100.00
2022-10-12T03:05:58.673Z,100.00
2022-10-12T03:08:25.992Z,100.00
2022-10-12T03:10:53.281Z,100.00
2022-10-12T03:13:20.506Z,100.00
2022-10-12T03:15:47.798Z,100.00
2022-10-12T03:18:15.068Z,100.00
2022-10-12T03:20:42.436Z,100.00
2022-10-12T03:23:09.669Z,100.00
2022-10-12T03:25:36.838Z,100.00
2022-10-12T03:28:04.941Z,100.00
2022-10-12T03:30:32.103Z,100.00
2022-10-12T03:32:59.321Z,100.00
2022-10-12T03:35:26.618Z,100.00
2022-10-12T03:37:53.804Z,100.00
2022-10-12T03:40:21.004Z,100.00
2022-10-12T03:42:48.257Z,100.00
2022-10-12T03:45:15.514Z,100.00
2022-10-12T03:47:42.803Z,100.00
2022-10-12T03:50:10.609Z,100.00
2022-10-12T03:52:37.901Z,100.00
2022-10-12T03:55:05.738Z,100.00
2022-10-12T03:57:33.112Z,100.00
2022-10-12T04:00:00.303Z,100.00
2022-10-12T04:02:27.580Z,100.00
2022-10-12T04:04:54.841Z,100.00
2022-10-12T04:07:22.155Z,100.00
2022-10-12T04:09:49.401Z,100.00
2022-10-12T04:12:16.709Z,100.00
2022-10-12T04:14:44.034Z,100.00
2022-10-12T04:17:11.953Z,100.00
2022-10-12T04:19:39.132Z,100.00
2022-10-12T04:22:06.318Z,100.00
2022-10-12T04:24:33.604Z,100.00
2022-10-12T04:27:00.830Z,100.00
2022-10-12T04:29:28.074Z,100.00
2022-10-12T04:31:55.327Z,100.00
2022-10-12T04:34:22.526Z,100.00
2022-10-12T04:36:50.637Z,100.00
2022-10-12T04:39:17.872Z,100.00
2022-10-12T04:41:45.230Z,100.00
2022-10-12T04:44:12.540Z,100.00
2022-10-12T04:46:39.806Z,100.00
2022-10-12T04:49:07.224Z,100.00
2022-10-12T04:51:34.629Z,100.00
2022-10-12T04:54:02.104Z,100.00
2022-10-12T04:56:29.437Z,100.00
2022-10-12T04:58:56.834Z,100.00
2022-10-12T05:01:24.264Z,100.00
2022-10-12T05:03:51.518Z,100.00
2022-10-12T05:06:18.794Z,100.00
2022-10-12T05:08:46.084Z,100.00
2022-10-12T05:11:13.852Z,100.00
2022-10-12T05:13:41.043Z,100.00
2022-10-12T05:16:08.302Z,100.00
2022-10-12T05:18:35.588Z,100.00
2022-10-12T05:21:02.816Z,100.00
2022-10-12T05:23:30.252Z,100.00
2022-10-12T05:25:57.517Z,100.00
2022-10-12T05:28:25.253Z,100.00
2022-10-12T05:30:53.461Z,100.00
2022-10-12T05:33:21.103Z,100.00
2022-10-12T05:35:53.369Z,100.00
2022-10-12T05:38:23.624Z,100.00
2022-10-12T05:40:50.862Z,100.00
2022-10-12T05:43:18.234Z,100.00
2022-10-12T05:45:45.435Z,100.00
2022-10-12T05:48:12.680Z,100.00
2022-10-12T05:50:40.023Z,100.00
2022-10-12T05:53:07.192Z,100.00
2022-10-12T05:55:34.616Z,100.00
2022-10-12T05:58:01.918Z,100.00
2022-10-12T06:00:29.178Z,100.00
2022-10-12T06:02:56.583Z,100.00
2022-10-12T06:05:24.195Z,100.00
2022-10-12T06:07:51.367Z,100.00
2022-10-12T06:10:18.597Z,100.00
2022-10-12T06:12:45.777Z,100.00
2022-10-12T06:15:13.015Z,100.00
2022-10-12T06:17:40.330Z,100.00
2022-10-12T06:20:08.375Z,100.00
2022-10-12T06:22:35.695Z,100.00
2022-10-12T06:25:03.277Z,100.00
2022-10-12T06:27:30.587Z,100.00
2022-10-12T06:29:58.142Z,100.00
2022-10-12T06:32:25.395Z,100.00
2022-10-12T06:34:52.664Z,100.00
2022-10-12T06:37:44.433Z,100.00
2022-10-12T06:40:07.960Z,100.00
2022-10-12T06:42:35.378Z,100.00
2022-10-12T06:45:02.809Z,100.00
2022-10-12T06:47:30.033Z,100.00
2022-10-12T06:49:57.203Z,100.00
2022-10-12T06:52:24.403Z,100.00
2022-10-12T06:54:51.677Z,100.00
2022-10-12T06:57:18.899Z,100.00
2022-10-12T06:59:46.135Z,100.00
2022-10-12T07:02:13.333Z,100.00
2022-10-12T07:04:40.592Z,100.00
2022-10-12T07:07:07.870Z,100.00
2022-10-12T07:09:35.192Z,100.00
2022-10-12T07:12:02.515Z,100.00
2022-10-12T07:14:29.733Z,100.00
2022-10-12T07:16:56.984Z,100.00
2022-10-12T07:19:24.257Z,100.00
2022-10-12T07:21:51.577Z,100.00
2022-10-12T07:24:18.803Z,100.00
2022-10-12T07:26:46.050Z,100.00
2022-10-12T07:29:13.294Z,100.00
2022-10-12T07:31:42.337Z,90.65
2022-10-12T07:34:09.556Z,81.41
2022-10-12T07:36:58.049Z,70.56
2022-10-12T07:39:24.735Z,60.41
2022-10-12T07:41:52.938Z,54.31
2022-10-12T07:44:21.196Z,50.61
2022-10-12T07:46:48.637Z,51.62
2022-10-12T07:49:16.928Z,50.34
2022-10-12T07:51:46.404Z,49.30
2022-10-12T07:54:19.823Z,45.87
2022-10-12T07:56:47.274Z,42.59
2022-10-12T07:59:15.210Z,40.90
2022-10-12T08:01:42.572Z,41.25
2022-10-12T08:04:10.534Z,43.76
2022-10-12T08:06:37.987Z,41.58
2022-10-12T08:09:05.302Z,44.88
2022-10-12T08:11:37.412Z,40.69
2022-10-12T08:14:04.755Z,41.82
2022-10-12T08:16:32.074Z,40.51
2022-10-12T08:19:01.105Z,40.54
2022-10-12T08:21:28.401Z,39.98
2022-10-12T08:23:55.640Z,41.56
2022-10-12T08:26:22.865Z,39.70
2022-10-12T08:28:50.277Z,38.17
2022-10-12T08:31:18.014Z,36.86
2022-10-12T08:33:45.499Z,36.03
2022-10-12T08:36:13.753Z,35.32
2022-10-12T08:38:43.331Z,37.80
2022-10-12T08:41:54.642Z,34.33
2022-10-12T08:44:52.120Z,33.54
2022-10-12T08:47:54.029Z,32.23
2022-10-12T08:50:32.416Z,31.73
2022-10-12T08:53:19.483Z,33.81
2022-10-12T08:55:47.340Z,34.66
2022-10-12T08:58:20.846Z,36.20
2022-10-12T09:00:53.849Z,33.61
2022-10-12T09:03:55.061Z,33.73
2022-10-12T09:06:28.823Z,35.26
2022-10-12T09:09:52.943Z,35.67
2022-10-12T09:12:53.579Z,34.37
2022-10-12T09:15:29.767Z,33.06
2022-10-12T09:17:59.902Z,33.26
2022-10-12T09:20:47.219Z,31.74
2022-10-12T09:23:47.957Z,30.50
2022-10-12T09:26:26.141Z,29.92
2022-10-12T09:28:58.416Z,29.45
2022-10-12T09:32:02.387Z,27.00
2022-10-12T09:34:29.672Z,25.02
2022-10-12T09:36:57.751Z,24.32
2022-10-12T09:39:33.889Z,24.71
2022-10-12T09:42:01.683Z,25.03
2022-10-12T09:44:44.946Z,25.92
2022-10-12T09:47:32.144Z,26.10
2022-10-12T09:50:02.478Z,28.71
2022-10-12T09:52:35.729Z,28.82
2022-10-12T09:58:02.870Z,31.85
2022-10-12T10:00:34.638Z,35.06
2022-10-12T10:03:03.430Z,34.87
2022-10-12T10:05:36.233Z,32.24
2022-10-12T10:08:23.506Z,29.24
2022-10-12T10:10:57.441Z,30.29
2022-10-12T10:13:31.837Z,32.91
2022-10-12T10:16:10.962Z,30.26
2022-10-12T10:18:44.205Z,29.16
2022-10-12T10:21:14.727Z,30.88
2022-10-12T10:24:36.773Z,32.20
2022-10-12T10:27:07.107Z,33.30
2022-10-12T10:29:41.864Z,32.01
2022-10-12T10:32:28.945Z,31.26
2022-10-12T10:35:18.697Z,29.35
2022-10-12T10:37:55.248Z,31.01
2022-10-12T10:40:30.508Z,30.19
2022-10-12T10:43:16.155Z,29.97
2022-10-12T10:45:50.757Z,27.67
2022-10-12T10:48:23.516Z,27.71
2022-10-12T10:51:07.071Z,26.50
2022-10-12T10:53:47.469Z,25.41
2022-10-12T10:56:31.400Z,24.86
2022-10-12T10:59:14.966Z,24.86
2022-10-12T11:02:00.069Z,27.43
2022-10-12T11:04:39.833Z,26.15
2022-10-12T11:07:31.939Z,25.95
2022-10-12T11:10:15.024Z,25.63
2022-10-12T11:12:49.773Z,26.00
2022-10-12T11:15:37.673Z,25.39
2022-10-12T11:18:45.084Z,26.62
2022-10-12T11:21:41.515Z,27.05
2022-10-12T11:24:24.236Z,27.23
2022-10-12T11:27:10.724Z,27.50
2022-10-12T11:29:38.883Z,28.36
2022-10-12T11:32:33.639Z,28.93
2022-10-12T11:35:06.898Z,29.66
2022-10-12T11:37:53.083Z,30.16
2022-10-12T11:41:30.938Z,29.04
2022-10-12T11:43:57.116Z,28.25
2022-10-12T11:46:58.670Z,29.55
2022-10-12T11:49:58.704Z,33.20
2022-10-12T11:52:36.278Z,33.22
2022-10-12T11:55:55.394Z,30.63
2022-10-12T11:58:48.778Z,31.33
2022-10-12T12:01:56.051Z,31.94
2022-10-12T12:04:42.231Z,32.40
2022-10-12T12:07:53.882Z,33.50
2022-10-12T12:10:35.381Z,34.25
2022-10-12T12:13:14.883Z,34.38
2022-10-12T12:15:52.272Z,35.65
2022-10-12T12:18:28.271Z,34.87
2022-10-12T12:21:10.249Z,33.69
2022-10-12T12:23:43.641Z,34.92
2022-10-12T12:26:15.846Z,34.03
2022-10-12T12:28:49.169Z,35.29
2022-10-12T12:31:22.181Z,34.93
2022-10-12T12:34:11.688Z,37.75
2022-10-12T12:36:44.868Z,38.35
2022-10-12T12:39:27.052Z,37.95
2022-10-12T12:42:04.542Z,40.25
2022-10-12T12:44:36.220Z,41.14
2022-10-12T12:47:08.493Z,41.69
2022-10-12T12:49:56.272Z,41.06
2022-10-12T12:52:30.388Z,41.67
2022-10-12T12:55:40.530Z,43.31
2022-10-12T12:58:34.948Z,43.45
2022-10-12T13:01:48.393Z,45.77
2022-10-12T13:04:40.501Z,47.25
2022-10-12T13:07:47.167Z,49.04
2022-10-12T13:11:28.321Z,45.74
2022-10-12T13:14:14.293Z,47.49
2022-10-12T13:17:31.306Z,48.59
2022-10-12T13:19:38.553Z,48.88
2022-10-12T13:22:26.205Z,49.45
2022-10-12T13:25:08.275Z,51.56
2022-10-12T13:27:48.748Z,52.91
2022-10-12T13:30:41.940Z,54.99
2022-10-12T13:33:37.195Z,55.73
2022-10-12T13:36:28.252Z,55.89
2022-10-12T13:39:07.540Z,57.26
2022-10-12T13:41:36.192Z,57.04
2022-10-12T13:44:08.205Z,58.39
2022-10-12T13:46:47.482Z,59.13
2022-10-12T13:49:16.582Z,61.70
2022-10-12T13:51:48.486Z,59.27
2022-10-12T13:54:34.475Z,58.27
2022-10-12T13:57:29.227Z,60.20
2022-10-12T14:00:20.393Z,59.13
2022-10-12T14:03:01.045Z,63.78
2022-10-12T14:05:32.335Z,62.88
2022-10-12T14:08:15.585Z,64.28
2022-10-12T14:10:44.699Z,62.90
2022-10-12T14:13:22.666Z,65.44
2022-10-12T14:15:50.144Z,60.53
2022-10-12T14:18:45.261Z,62.27
2022-10-12T14:21:23.473Z,63.96
2022-10-12T14:23:54.725Z,64.33
2022-10-12T14:26:31.547Z,65.85
2022-10-12T14:29:00.673Z,66.56
2022-10-12T14:32:06.955Z,66.77
2022-10-12T14:34:49.744Z,70.69
2022-10-12T14:37:29.816Z,70.30
2022-10-12T14:40:00.953Z,67.63
2022-10-12T14:42:36.241Z,72.65
2022-10-12T14:45:06.804Z,73.01
2022-10-12T14:47:42.909Z,73.22
2022-10-12T14:50:19.079Z,75.50
2022-10-12T14:52:56.330Z,75.60
2022-10-12T14:55:27.608Z,77.31
2022-10-12T14:57:55.117Z,77.45
2022-10-12T15:00:32.938Z,80.53
2022-10-12T15:03:01.570Z,80.19
2022-10-12T15:05:33.974Z,81.72
2022-10-12T15:08:07.514Z,82.06
2022-10-12T15:10:36.160Z,82.92
2022-10-12T15:13:04.010Z,84.29
2022-10-12T15:15:48.685Z,81.82
2022-10-12T15:18:15.975Z,83.78
2022-10-12T15:20:48.254Z,86.96
2022-10-12T15:23:16.771Z,87.32
2022-10-12T15:26:04.493Z,85.50
2022-10-12T15:28:32.173Z,87.68
2022-10-12T15:31:19.721Z,87.61
2022-10-12T15:33:47.213Z,91.80
2022-10-12T15:36:14.478Z,91.64
2022-10-12T15:38:41.587Z,95.80
2022-10-12T15:41:20.959Z,96.86
2022-10-12T15:43:48.283Z,96.50
2022-10-12T15:46:15.537Z,97.69
2022-10-12T15:48:44.073Z,98.55
2022-10-12T15:51:20.824Z,100.00
2022-10-12T15:53:48.480Z,98.58
2022-10-12T15:56:17.418Z,100.00
2022-10-12T15:58:45.548Z,100.00
2022-10-12T16:01:19.463Z,100.00
2022-10-12T16:03:47.690Z,100.00
2022-10-12T16:06:15.023Z,98.51
2022-10-12T16:08:42.614Z,100.00
2022-10-12T16:11:14.710Z,100.00
2022-10-12T16:13:49.801Z,100.00
2022-10-12T16:16:19.191Z,100.00
2022-10-12T16:18:46.510Z,100.00
2022-10-12T16:21:13.881Z,100.00
2022-10-12T16:23:41.775Z,100.00
2022-10-12T16:26:14.461Z,100.00
2022-10-12T16:28:42.321Z,100.00
2022-10-12T16:31:16.012Z,100.00
2022-10-12T16:33:43.746Z,100.00
2022-10-12T16:36:15.031Z,100.00
2022-10-12T16:38:43.745Z,100.00
2022-10-12T16:41:14.892Z,100.00
2022-10-12T16:43:43.936Z,100.00
2022-10-12T16:46:11.325Z,100.00
2022-10-12T16:48:38.931Z,100.00
2022-10-12T16:51:11.271Z,100.00
2022-10-12T16:53:39.127Z,100.00
2022-10-12T16:56:06.680Z,100.00
2022-10-12T16:58:33.951Z,100.00
2022-10-12T17:01:14.160Z,100.00
2022-10-12T17:03:41.859Z,100.00
2022-10-12T17:06:09.896Z,100.00
2022-10-12T17:08:39.535Z,98.93
2022-10-12T17:11:13.694Z,100.00
2022-10-12T17:13:48.055Z,100.00
2022-10-12T17:16:36.185Z,100.00
2022-10-12T17:19:04.047Z,100.00
2022-10-12T17:21:31.569Z,100.00
2022-10-12T17:24:00.353Z,100.00
2022-10-12T17:26:28.332Z,100.00
2022-10-12T17:28:55.738Z,100.00
2022-10-12T17:31:23.206Z,100.00
2022-10-12T17:33:50.448Z,100.00
2022-10-12T17:36:18.028Z,100.00
2022-10-12T17:38:48.360Z,100.00
2022-10-12T17:41:15.847Z,100.00
2022-10-12T17:43:43.155Z,100.00
2022-10-12T17:46:10.476Z,100.00
2022-10-12T17:48:37.837Z,100.00
2022-10-12T17:51:12.811Z,100.00
2022-10-12T17:53:40.918Z,100.00
2022-10-12T17:56:12.002Z,100.00
2022-10-12T17:58:39.620Z,100.00
2022-10-12T18:01:15.721Z,100.00
2022-10-12T18:03:46.307Z,100.00
2022-10-12T18:06:17.709Z,100.00
2022-10-12T18:08:45.361Z,100.00
2022-10-12T18:11:14.249Z,100.00
2022-10-12T18:13:47.857Z,100.00
2022-10-12T18:16:18.463Z,100.00
2022-10-12T18:18:46.107Z,100.00
2022-10-12T18:21:14.127Z,100.00
2022-10-12T18:23:41.498Z,100.00
2022-10-12T18:26:11.827Z,100.00
2022-10-12T18:28:40.432Z,100.00
2022-10-12T18:31:07.976Z,100.00
2022-10-12T18:33:35.291Z,100.00
2022-10-12T18:36:07.427Z,100.00
2022-10-12T18:38:34.897Z,100.00
2022-10-12T18:41:11.216Z,100.00
2022-10-12T18:43:39.002Z,100.00
2022-10-12T18:46:13.527Z,100.00
2022-10-12T18:48:41.612Z,100.00
2022-10-12T18:51:31.560Z,100.00
2022-10-12T18:54:00.912Z,100.00
2022-10-12T18:56:29.878Z,100.00
2022-10-12T18:58:59.905Z,100.00
2022-10-12T19:01:30.041Z,100.00
2022-10-12T19:03:59.991Z,100.00
2022-10-12T19:06:36.191Z,100.00
2022-10-12T19:09:05.310Z,100.00
2022-10-12T19:11:34.674Z,100.00
2022-10-12T19:14:06.830Z,100.00
2022-10-12T19:16:35.544Z,100.00
2022-10-12T19:19:07.832Z,100.00
2022-10-12T19:21:35.513Z,100.00
2022-10-12T19:24:04.990Z,100.00
2022-10-12T19:26:33.104Z,100.00
2022-10-12T19:29:01.427Z,100.00
2022-10-12T19:31:37.045Z,100.00
2022-10-12T19:34:11.987Z,100.00
2022-10-12T19:36:40.671Z,100.00
2022-10-12T19:39:13.217Z,100.00
2022-10-12T19:41:41.094Z,100.00
2022-10-12T19:44:09.020Z,100.00
2022-10-12T19:46:37.004Z,100.00
2022-10-12T19:49:04.519Z,100.00
2022-10-12T19:51:33.072Z,100.00
2022-10-12T19:54:04.234Z,100.00
2022-10-12T19:56:32.686Z,100.00
2022-10-12T19:59:00.459Z,100.00
2022-10-12T20:01:35.050Z,100.00
2022-10-12T20:04:08.356Z,100.00
2022-10-12T20:06:37.675Z,100.00
2022-10-12T20:09:07.544Z,100.00
2022-10-12T20:11:38.323Z,100.00
2022-10-12T20:14:06.113Z,100.00
2022-10-12T20:16:35.247Z,100.00
2022-10-12T20:19:05.069Z,100.00
2022-10-12T20:21:32.799Z,100.00
2022-10-12T20:24:00.120Z,100.00
2022-10-12T20:26:27.834Z,100.00
2022-10-12T20:28:55.677Z,100.00
2022-10-12T20:31:24.723Z,100.00
2022-10-12T20:33:53.998Z,100.00
2022-10-12T20:36:25.790Z,100.00
2022-10-12T20:38:53.415Z,100.00
2022-10-12T20:41:21.937Z,100.00
2022-10-12T20:43:49.465Z,100.00
2022-10-12T20:46:18.754Z,100.00
2022-10-12T20:48:46.508Z,100.00
2022-10-12T20:51:27.198Z,100.00
2022-10-12T20:53:55.750Z,100.00
2022-10-12T20:56:22.896Z,100.00
2022-10-12T20:58:50.162Z,100.00
2022-10-12T21:01:17.876Z,100.00
2022-10-12T21:03:45.186Z,100.00
2022-10-12T21:06:19.025Z,100.00
2022-10-12T21:08:51.294Z,100.00
2022-10-12T21:11:18.818Z,100.00
2022-10-12T21:13:46.584Z,100.00
2022-10-12T21:16:14.821Z,100.00
2022-10-12T21:18:43.108Z,100.00
2022-10-12T21:21:14.145Z,100.00
2022-10-12T21:23:43.783Z,100.00
2022-10-12T21:26:17.670Z,100.00
2022-10-12T21:28:46.386Z,100.00
2022-10-12T21:31:14.828Z,100.00
2022-10-12T21:33:42.192Z,100.00
2022-10-12T21:36:14.931Z,100.00
2022-10-12T21:38:43.373Z,100.00
2022-10-12T21:41:12.484Z,100.00
2022-10-12T21:43:41.658Z,100.00
2022-10-12T21:46:16.353Z,100.00
2022-10-12T21:48:44.121Z,100.00
2022-10-12T21:51:12.124Z,100.00
2022-10-12T21:53:40.711Z,100.00
2022-10-12T21:56:20.853Z,100.00
2022-10-12T21:58:49.588Z,100.00
2022-10-12T22:01:21.005Z,100.00
2022-10-12T22:03:52.067Z,100.00
2022-10-12T22:06:21.959Z,100.00
2022-10-12T22:09:02.668Z,100.00
2022-10-12T22:11:32.769Z,100.00
2022-10-12T22:14:08.529Z,100.00
2022-10-12T22:16:37.190Z,100.00
2022-10-12T22:19:08.402Z,100.00
2022-10-12T22:21:36.606Z,100.00
2022-10-12T22:24:03.920Z,100.00
2022-10-12T22:26:31.430Z,100.00
2022-10-12T22:29:01.267Z,100.00
2022-10-12T22:31:28.857Z,100.00
2022-10-12T22:33:56.752Z,100.00
2022-10-12T22:36:24.196Z,100.00
2022-10-12T22:38:51.371Z,100.00
2022-10-12T22:41:23.591Z,100.00
2022-10-12T22:43:56.987Z,100.00
2022-10-12T22:46:26.671Z,100.00
2022-10-12T22:48:54.838Z,100.00
2022-10-12T22:51:36.635Z,100.00
2022-10-12T22:54:06.801Z,100.00
2022-10-12T22:56:34.503Z,100.00
2022-10-12T22:59:07.117Z,100.00
2022-10-12T23:01:36.145Z,100.00
2022-10-12T23:04:03.486Z,100.00
2022-10-12T23:06:31.263Z,100.00
2022-10-12T23:08:58.534Z,100.00
2022-10-12T23:11:28.748Z,100.00
2022-10-12T23:13:57.815Z,100.00
2022-10-12T23:16:31.432Z,100.00
2022-10-12T23:19:05.406Z,100.00
2022-10-12T23:21:34.714Z,100.00
2022-10-12T23:24:05.138Z,100.00
2022-10-12T23:26:32.536Z,100.00
2022-10-12T23:29:00.108Z,100.00
2022-10-12T23:31:29.979Z,100.00
2022-10-12T23:34:04.566Z,100.00
2022-10-12T23:36:34.665Z,100.00
2022-10-12T23:39:04.579Z,100.00
2022-10-12T23:41:31.852Z,100.00
2022-10-12T23:43:59.159Z,100.00
2022-10-12T23:46:26.727Z,100.00
2022-10-12T23:48:56.084Z,100.00
2022-10-12T23:51:23.314Z,100.00
2022-10-12T23:53:50.539Z,100.00
2022-10-12T23:56:18.035Z,100.00
2022-10-12T23:58:45.256Z,100.00
